createdAt,value
2022-11-27T00:01:31.724Z,9.00
2022-11-27T00:03:59.661Z,9.23
2022-11-27T00:06:29.002Z,8.57
2022-11-27T00:08:57.738Z,12.05
2022-11-27T00:11:26.754Z,11.93
2022-11-27T00:13:54.516Z,10.90
2022-11-27T00:16:23.723Z,5.90
2022-11-27T00:18:52.078Z,12.50
2022-11-27T00:21:31.415Z,7.32
2022-11-27T00:24:01.054Z,9.55
2022-11-27T00:26:36.031Z,9.27
2022-11-27T00:29:05.545Z,10.57
2022-11-27T00:31:34.278Z,5.95
2022-11-27T00:34:04.097Z,8.98
2022-11-27T00:36:33.833Z,7.10
2022-11-27T00:39:01.429Z,10.52
2022-11-27T00:41:30.185Z,10.27
2022-11-27T00:43:58.401Z,10.50
2022-11-27T00:49:01.527Z,9.52
2022-11-27T00:51:30.084Z,10.95
2022-11-27T00:53:58.376Z,11.68
2022-11-27T00:58:56.314Z,10.25
2022-11-27T01:01:27.612Z,12.77
2022-11-27T01:03:57.275Z,9.95
2022-11-27T01:06:25.953Z,10.73
2022-11-27T01:08:54.835Z,7.05
2022-11-27T01:11:28.080Z,9.32
2022-11-27T01:13:58.084Z,12.15
2022-11-27T01:16:27.568Z,8.55
2022-11-27T01:18:57.766Z,9.00
2022-11-27T01:21:27.353Z,8.75
2022-11-27T01:23:55.280Z,11.48
2022-11-27T01:26:23.632Z,14.00
2022-11-27T01:31:25.171Z,9.70
2022-11-27T01:33:55.206Z,11.23
2022-11-27T01:36:23.054Z,11.35
2022-11-27T01:38:50.823Z,6.97
2022-11-27T01:41:20.115Z,8.75
2022-11-27T01:44:24.478Z,7.43
2022-11-27T01:46:58.234Z,5.93
2022-11-27T01:49:29.085Z,9.73
2022-11-27T01:52:00.815Z,7.43
2022-11-27T01:54:39.756Z,8.18
2022-11-27T01:57:19.123Z,8.60
2022-11-27T01:59:48.775Z,13.88
2022-11-27T02:02:16.501Z,7.90
2022-11-27T02:04:44.045Z,11.30
2022-11-27T02:07:11.782Z,8.05
2022-11-27T02:09:40.161Z,11.93
2022-11-27T02:12:29.425Z,10.02
2022-11-27T02:15:31.820Z,5.97
2022-11-27T02:18:17.080Z,12.10
2022-11-27T02:21:07.773Z,15.23
2022-11-27T02:23:54.226Z,12.00
2022-11-27T02:26:49.782Z,13.57
2022-11-27T02:29:27.126Z,9.88
2022-11-27T02:32:03.891Z,17.07
2022-11-27T02:34:52.315Z,11.02
2022-11-27T02:37:27.830Z,10.20
2022-11-27T02:40:11.884Z,12.68
2022-11-27T02:42:51.511Z,8.48
2022-11-27T02:45:28.183Z,11.73
2022-11-27T02:47:56.807Z,8.13
2022-11-27T02:50:26.896Z,11.55
2022-11-27T02:53:01.457Z,8.93
2022-11-27T02:55:33.828Z,9.90
2022-11-27T02:58:03.443Z,9.98
2022-11-27T03:00:32.739Z,9.32
2022-11-27T03:03:05.809Z,6.25
2022-11-27T03:05:48.686Z,8.45
2022-11-27T03:08:35.350Z,9.18
2022-11-27T03:11:12.357Z,8.73
2022-11-27T03:13:48.641Z,5.22
2022-11-27T03:16:31.914Z,7.53
2022-11-27T03:19:11.417Z,10.50
2022-11-27T03:21:52.531Z,8.23
2022-11-27T03:24:21.096Z,10.13
2022-11-27T03:26:48.864Z,7.40
2022-11-27T03:29:31.305Z,7.38
2022-11-27T03:31:59.229Z,5.75
2022-11-27T03:34:29.989Z,5.40
2022-11-27T03:36:57.424Z,9.25
2022-11-27T03:39:25.988Z,5.90
2022-11-27T03:42:15.020Z,7.45
2022-11-27T03:44:46.367Z,6.00
2022-11-27T03:47:25.472Z,5.20
2022-11-27T03:50:19.593Z,9.98
2022-11-27T03:53:09.433Z,8.80
2022-11-27T03:55:50.913Z,3.40
2022-11-27T03:58:33.601Z,6.60
2022-11-27T04:01:03.640Z,7.00
2022-11-27T04:03:31.840Z,6.55
2022-11-27T04:08:26.753Z,6.30
2022-11-27T04:10:54.283Z,4.90
2022-11-27T04:13:21.720Z,4.22
2022-11-27T04:15:49.245Z,6.28
2022-11-27T04:18:16.830Z,5.80
2022-11-27T04:20:44.459Z,5.90
2022-11-27T04:23:11.870Z,8.35
2022-11-27T04:25:39.279Z,4.53
2022-11-27T04:28:06.861Z,3.47
2022-11-27T04:30:34.509Z,4.28
2022-11-27T04:33:01.965Z,9.10
2022-11-27T04:35:29.361Z,7.13
2022-11-27T04:37:57.942Z,3.83
2022-11-27T04:40:25.590Z,4.82
2022-11-27T04:42:52.961Z,8.43
2022-11-27T04:45:20.518Z,4.00
2022-11-27T04:47:48.170Z,4.75
2022-11-27T04:50:15.795Z,4.93
2022-11-27T04:52:43.238Z,4.95
2022-11-27T04:55:11.103Z,8.40
2022-11-27T04:57:38.546Z,3.53
2022-11-27T05:00:06.770Z,2.70
2022-11-27T05:05:01.620Z,6.45
2022-11-27T05:07:29.145Z,6.15
2022-11-27T05:09:56.596Z,4.70
2022-11-27T05:12:24.122Z,5.53
2022-11-27T05:14:51.591Z,4.50
2022-11-27T05:17:19.016Z,5.40
2022-11-27T05:19:46.415Z,7.18
2022-11-27T05:22:13.806Z,7.20
2022-11-27T05:24:41.500Z,5.07
2022-11-27T05:27:09.054Z,8.93
2022-11-27T05:29:36.546Z,4.57
2022-11-27T05:32:04.215Z,5.75
2022-11-27T05:34:31.685Z,4.57
2022-11-27T05:36:59.117Z,5.93
2022-11-27T05:39:26.707Z,4.63
2022-11-27T05:41:54.101Z,4.95
2022-11-27T05:44:21.670Z,3.47
2022-11-27T05:46:49.182Z,4.88
2022-11-27T05:49:16.716Z,4.72
2022-11-27T05:51:50.638Z,7.05
2022-11-27T05:54:19.377Z,5.13
2022-11-27T05:56:47.002Z,4.50
2022-11-27T05:59:14.975Z,6.70
2022-11-27T06:01:43.059Z,4.78
2022-11-27T06:04:10.552Z,2.47
2022-11-27T06:06:38.104Z,1.73
2022-11-27T06:09:10.870Z,9.48
2022-11-27T06:11:42.470Z,2.08
2022-11-27T06:14:11.086Z,1.33
2022-11-27T06:16:38.606Z,3.85
2022-11-27T06:19:06.154Z,1.13
2022-11-27T06:21:33.690Z,1.77
2022-11-27T06:24:01.249Z,1.90
2022-11-27T06:26:30.929Z,2.10
2022-11-27T06:29:00.249Z,4.57
2022-11-27T06:31:30.889Z,2.00
2022-11-27T06:33:59.590Z,3.33
2022-11-27T06:36:35.861Z,3.63
2022-11-27T06:39:05.801Z,2.72
2022-11-27T06:41:33.542Z,2.65
2022-11-27T06:44:02.129Z,2.47
2022-11-27T06:46:30.218Z,6.50
2022-11-27T06:48:58.671Z,2.70
2022-11-27T06:51:28.225Z,2.65
2022-11-27T06:53:56.405Z,1.70
2022-11-27T06:56:27.136Z,5.38
2022-11-27T06:58:56.821Z,5.68
2022-11-27T07:01:26.632Z,2.47
2022-11-27T07:03:54.121Z,2.88
2022-11-27T07:06:24.019Z,4.28
2022-11-27T07:08:52.574Z,2.90
2022-11-27T07:11:22.919Z,2.45
2022-11-27T07:13:51.361Z,4.80
2022-11-27T07:16:19.102Z,5.57
2022-11-27T07:18:53.810Z,4.10
2022-11-27T07:21:21.823Z,3.25
2022-11-27T07:23:49.292Z,4.18
2022-11-27T07:26:19.148Z,3.45
2022-11-27T07:29:20.361Z,5.50
2022-11-27T07:31:47.968Z,5.28
2022-11-27T07:34:21.255Z,4.95
2022-11-27T07:36:49.214Z,3.65
2022-11-27T07:39:25.183Z,5.68
2022-11-27T07:42:23.154Z,6.18
2022-11-27T07:44:49.021Z,6.63
2022-11-27T07:47:16.483Z,5.97
2022-11-27T07:49:43.871Z,4.82
2022-11-27T07:52:11.300Z,6.38
2022-11-27T07:54:39.557Z,5.10
2022-11-27T07:57:07.514Z,8.07
2022-11-27T07:59:37.355Z,5.30
2022-11-27T08:02:07.380Z,4.70
2022-11-27T08:04:34.887Z,2.30
2022-11-27T08:07:02.444Z,4.25
2022-11-27T08:09:30.401Z,5.53
2022-11-27T08:11:57.952Z,3.88
2022-11-27T08:14:25.486Z,3.25
2022-11-27T08:16:53.723Z,6.35
2022-11-27T08:21:48.709Z,6.22
2022-11-27T08:24:16.530Z,4.53
2022-11-27T08:26:44.225Z,6.05
2022-11-27T08:29:12.879Z,5.05
2022-11-27T08:31:40.536Z,4.40
2022-11-27T08:34:09.051Z,3.55
2022-11-27T08:36:36.600Z,4.63
2022-11-27T08:39:04.151Z,14.25
2022-11-27T08:41:31.731Z,6.50
2022-11-27T08:43:59.474Z,7.22
2022-11-27T08:46:27.329Z,6.28
2022-11-27T08:48:54.883Z,8.10
2022-11-27T08:51:22.486Z,6.45
2022-11-27T08:53:52.780Z,5.55
2022-11-27T08:56:25.378Z,14.13
2022-11-27T08:58:53.857Z,11.02
2022-11-27T09:01:26.973Z,6.25
2022-11-27T09:03:54.674Z,9.93
2022-11-27T09:06:24.834Z,6.30
2022-11-27T09:08:55.404Z,11.93
2022-11-27T09:11:27.910Z,13.30
2022-11-27T09:14:02.203Z,5.30
2022-11-27T09:16:30.607Z,8.30
2022-11-27T09:18:58.493Z,4.97
2022-11-27T09:21:28.127Z,7.03
2022-11-27T09:23:57.726Z,3.42
2022-11-27T09:26:26.835Z,5.93
2022-11-27T09:28:55.480Z,4.60
2022-11-27T09:31:28.559Z,5.90
2022-11-27T09:33:57.585Z,7.75
2022-11-27T09:36:26.044Z,4.22
2022-11-27T09:38:56.470Z,5.03
2022-11-27T09:41:58.251Z,6.43
2022-11-27T09:44:46.693Z,5.00
2022-11-27T09:47:26.809Z,7.57
2022-11-27T09:50:03.290Z,7.20
2022-11-27T09:52:52.890Z,2.22
2022-11-27T09:55:43.557Z,7.75
2022-11-27T09:58:23.721Z,7.50
2022-11-27T10:00:51.354Z,4.72
2022-11-27T10:03:24.310Z,4.50
2022-11-27T10:06:26.810Z,5.20
2022-11-27T10:09:03.335Z,4.93
2022-11-27T10:11:56.823Z,9.18
2022-11-27T10:14:31.242Z,5.90
2022-11-27T10:17:17.014Z,7.40
2022-11-27T10:20:02.234Z,4.43
2022-11-27T10:22:48.474Z,5.10
2022-11-27T10:25:38.751Z,6.47
2022-11-27T10:28:58.990Z,4.60
2022-11-27T10:31:53.307Z,9.48
2022-11-27T10:34:50.089Z,8.77
2022-11-27T10:37:43.202Z,6.55
2022-11-27T10:40:12.704Z,8.70
2022-11-27T10:42:45.305Z,4.40
2022-11-27T10:45:25.871Z,5.13
2022-11-27T10:47:55.053Z,4.63
2022-11-27T10:50:22.924Z,4.22
2022-11-27T10:52:55.677Z,6.72
2022-11-27T10:56:01.474Z,5.97
2022-11-27T10:58:37.642Z,8.02
2022-11-27T11:01:08.094Z,11.68
2022-11-27T11:03:36.334Z,9.13
2022-11-27T11:06:21.757Z,9.85
2022-11-27T11:09:06.114Z,8.63
2022-11-27T11:11:34.969Z,7.15
2022-11-27T11:14:02.609Z,9.43
2022-11-27T11:16:35.150Z,9.10
2022-11-27T11:19:11.232Z,6.65
2022-11-27T11:21:42.566Z,8.80
2022-11-27T11:24:19.797Z,10.27
2022-11-27T11:27:21.736Z,8.33
2022-11-27T11:30:03.067Z,9.73
2022-11-27T11:32:37.758Z,13.48
2022-11-27T11:35:25.098Z,6.38
2022-11-27T11:37:56.250Z,12.30
2022-11-27T11:40:27.452Z,10.80
2022-11-27T11:43:07.713Z,8.52
2022-11-27T11:45:44.021Z,10.57
2022-11-27T11:48:29.213Z,8.38
2022-11-27T11:51:18.349Z,7.28
2022-11-27T11:54:08.600Z,13.27
2022-11-27T11:56:42.079Z,11.88
2022-11-27T11:59:31.135Z,11.90
2022-11-27T12:02:35.248Z,10.02
2022-11-27T12:05:11.679Z,16.88
2022-11-27T12:07:56.520Z,11.10
2022-11-27T12:11:05.453Z,8.27
2022-11-27T12:14:05.934Z,8.45
2022-11-27T12:16:52.375Z,8.60
2022-11-27T12:19:45.675Z,9.60
2022-11-27T12:22:22.282Z,10.60
2022-11-27T12:25:03.105Z,12.82
2022-11-27T12:28:01.509Z,11.82
2022-11-27T12:31:04.019Z,16.52
2022-11-27T12:34:06.914Z,14.82
2022-11-27T12:36:54.754Z,13.50
2022-11-27T12:39:26.065Z,12.77
2022-11-27T12:42:21.784Z,14.10
2022-11-27T12:45:21.112Z,15.48
2022-11-27T12:47:56.534Z,10.27
2022-11-27T12:50:53.982Z,14.90
2022-11-27T12:53:42.886Z,16.27
2022-11-27T12:56:35.063Z,14.15
2022-11-27T12:59:04.970Z,16.17
2022-11-27T13:01:41.234Z,18.08
2022-11-27T13:04:34.790Z,8.85
2022-11-27T13:07:25.018Z,13.30
2022-11-27T13:10:33.607Z,12.73
2022-11-27T13:13:21.037Z,22.20
2022-11-27T13:16:18.701Z,20.70
2022-11-27T13:19:06.738Z,18.98
2022-11-27T13:21:39.251Z,18.73
2022-11-27T13:24:12.866Z,14.68
2022-11-27T13:26:48.949Z,21.10
2022-11-27T13:29:37.230Z,27.58
2022-11-27T13:32:06.470Z,22.55
2022-11-27T13:34:46.752Z,15.85
2022-11-27T13:37:38.118Z,19.00
2022-11-27T13:40:06.137Z,24.48
2022-11-27T13:42:42.905Z,25.98
2022-11-27T13:45:23.696Z,28.73
2022-11-27T13:47:52.435Z,24.45
2022-11-27T13:50:31.499Z,21.67
2022-11-27T13:53:06.204Z,26.40
2022-11-27T13:55:37.077Z,29.10
2022-11-27T13:58:05.739Z,22.48
2022-11-27T14:00:44.724Z,26.95
2022-11-27T14:03:30.414Z,41.35
2022-11-27T14:05:58.313Z,35.75
2022-11-27T14:08:35.576Z,40.50
2022-11-27T14:11:06.720Z,26.20
2022-11-27T14:13:44.598Z,32.70
2022-11-27T14:16:24.644Z,39.33
2022-11-27T14:18:54.491Z,40.50
2022-11-27T14:21:40.794Z,39.45
2022-11-27T14:24:41.065Z,35.55
2022-11-27T14:32:54.536Z,36.38
2022-11-27T14:35:28.646Z,41.17
2022-11-27T14:38:11.533Z,32.78
2022-11-27T14:40:39.275Z,35.38
2022-11-27T14:43:15.283Z,39.70
2022-11-27T14:45:48.603Z,36.13
2022-11-27T14:48:20.181Z,46.97
2022-11-27T14:50:50.044Z,34.05
2022-11-27T14:53:20.388Z,40.17
2022-11-27T14:55:54.890Z,36.85
2022-11-27T14:58:28.518Z,50.10
2022-11-27T15:01:06.190Z,47.35
2022-11-27T15:03:34.247Z,43.75
2022-11-27T15:08:36.226Z,48.50
2022-11-27T15:11:05.314Z,41.90
2022-11-27T15:13:35.718Z,52.70
2022-11-27T15:16:15.256Z,39.42
2022-11-27T15:18:49.965Z,42.75
2022-11-27T15:21:20.656Z,54.95
2022-11-27T15:23:53.804Z,41.67
2022-11-27T15:26:40.434Z,43.35
2022-11-27T15:29:49.731Z,41.05
2022-11-27T15:32:27.552Z,54.33
2022-11-27T15:34:55.419Z,48.70
2022-11-27T15:37:34.520Z,41.65
2022-11-27T15:40:16.195Z,42.33
2022-11-27T15:42:43.585Z,43.67
2022-11-27T15:45:14.857Z,49.22
2022-11-27T15:47:42.728Z,47.28
2022-11-27T15:50:17.238Z,53.72
2022-11-27T15:52:44.720Z,44.55
2022-11-27T15:55:18.178Z,47.00
2022-11-27T15:57:46.205Z,44.13
2022-11-27T16:00:14.477Z,44.47
2022-11-27T16:05:09.848Z,35.72
2022-11-27T16:07:37.350Z,36.38
2022-11-27T16:10:05.870Z,51.33
2022-11-27T16:12:33.605Z,46.30
2022-11-27T16:15:01.551Z,49.75
2022-11-27T16:17:29.035Z,52.25
2022-11-27T16:19:56.627Z,60.17
2022-11-27T16:22:24.090Z,53.22
2022-11-27T16:24:51.856Z,52.30
2022-11-27T16:27:19.543Z,66.38
2022-11-27T16:29:46.989Z,61.03
2022-11-27T16:32:14.536Z,50.50
2022-11-27T16:34:42.256Z,49.45
2022-11-27T16:39:44.373Z,51.72
2022-11-27T16:42:13.299Z,40.85
2022-11-27T16:44:43.177Z,33.20
2022-11-27T16:47:11.716Z,50.85
2022-11-27T16:49:39.861Z,39.83
2022-11-27T16:52:07.401Z,39.17
2022-11-27T16:54:40.581Z,37.13
2022-11-27T16:57:08.296Z,37.55
2022-11-27T16:59:38.279Z,40.72
2022-11-27T17:02:06.045Z,44.88
2022-11-27T17:04:33.953Z,51.08
2022-11-27T17:07:01.399Z,45.88
2022-11-27T17:09:29.453Z,43.40
2022-11-27T17:11:56.902Z,39.30
2022-11-27T17:14:27.564Z,38.72
2022-11-27T17:19:24.058Z,48.50
2022-11-27T17:24:20.755Z,41.22
2022-11-27T17:26:51.225Z,46.05
2022-11-27T17:29:23.071Z,50.20
2022-11-27T17:31:51.268Z,44.90
2022-11-27T17:36:50.708Z,43.88
2022-11-27T17:39:18.168Z,43.85
2022-11-27T17:41:45.752Z,43.78
2022-11-27T17:44:13.486Z,42.38
2022-11-27T17:46:41.302Z,40.22
2022-11-27T17:49:08.743Z,39.78
2022-11-27T17:51:36.879Z,58.03
2022-11-27T17:56:35.551Z,40.42
2022-11-27T17:59:03.583Z,47.67
2022-11-27T18:01:31.401Z,44.75
2022-11-27T18:04:00.977Z,40.65
2022-11-27T18:06:31.673Z,37.08
2022-11-27T18:09:00.220Z,43.92
2022-11-27T18:11:30.583Z,37.45
2022-11-27T18:14:00.813Z,42.97
2022-11-27T18:16:35.938Z,32.63
2022-11-27T18:19:09.699Z,29.17
2022-11-27T18:21:38.354Z,35.65
2022-11-27T18:24:24.042Z,31.70
2022-11-27T18:27:11.091Z,29.48
2022-11-27T18:29:41.590Z,37.97
2022-11-27T18:32:09.888Z,33.92
2022-11-27T18:34:37.545Z,33.88
2022-11-27T18:37:05.412Z,31.00
2022-11-27T18:39:33.846Z,31.25
2022-11-27T18:42:01.537Z,26.25
2022-11-27T18:44:29.418Z,33.15
2022-11-27T18:46:57.313Z,36.88
2022-11-27T18:49:25.455Z,34.38
2022-11-27T18:51:56.316Z,34.45
2022-11-27T18:54:24.519Z,28.33
2022-11-27T18:56:51.958Z,28.60
2022-11-27T18:59:19.786Z,25.98
2022-11-27T19:01:49.741Z,31.48
2022-11-27T19:04:17.773Z,34.17
2022-11-27T19:06:46.798Z,33.58
2022-11-27T19:09:14.693Z,34.65
2022-11-27T19:11:43.889Z,43.90
2022-11-27T19:14:12.183Z,33.63
2022-11-27T19:16:46.893Z,38.38
2022-11-27T19:22:09.224Z,41.33
2022-11-27T19:24:38.144Z,38.22
2022-11-27T19:27:05.609Z,32.28
2022-11-27T19:29:33.441Z,42.80
2022-11-27T19:32:03.732Z,46.75
2022-11-27T19:34:31.454Z,32.92
2022-11-27T19:36:59.087Z,38.65
2022-11-27T19:39:27.195Z,43.70
2022-11-27T19:41:55.123Z,40.33
2022-11-27T19:44:23.908Z,44.33
2022-11-27T19:46:51.759Z,38.20
2022-11-27T19:49:22.018Z,38.75
2022-11-27T19:51:49.833Z,48.15
2022-11-27T19:54:20.477Z,43.10
2022-11-27T19:56:47.979Z,36.33
2022-11-27T19:59:15.491Z,40.33
2022-11-27T20:01:43.049Z,44.42
2022-11-27T20:04:11.637Z,46.83
2022-11-27T20:06:39.927Z,45.28
2022-11-27T20:09:08.576Z,42.47
2022-11-27T20:11:36.959Z,32.42
2022-11-27T20:14:06.337Z,42.78
2022-11-27T20:16:35.834Z,36.78
2022-11-27T20:19:05.908Z,34.03
2022-11-27T20:21:36.809Z,38.30
2022-11-27T20:24:04.615Z,37.55
2022-11-27T20:26:37.189Z,38.72
2022-11-27T20:29:07.870Z,36.03
2022-11-27T20:31:37.683Z,40.10
2022-11-27T20:34:06.904Z,38.38
2022-11-27T20:36:38.381Z,41.05
2022-11-27T20:39:06.005Z,33.30
2022-11-27T20:41:34.093Z,36.50
2022-11-27T20:44:04.847Z,41.60
2022-11-27T20:46:33.557Z,36.47
2022-11-27T20:49:02.290Z,35.42
2022-11-27T20:51:33.539Z,34.95
2022-11-27T20:54:08.080Z,28.38
2022-11-27T20:59:04.961Z,24.60
2022-11-27T21:01:35.454Z,30.95
2022-11-27T21:04:09.436Z,35.72
2022-11-27T21:06:43.751Z,33.67
2022-11-27T21:09:13.651Z,35.80
2022-11-27T21:11:42.399Z,33.40
2022-11-27T21:14:12.589Z,34.30
2022-11-27T21:16:46.084Z,27.30
2022-11-27T21:19:17.253Z,42.75
2022-11-27T21:21:45.642Z,36.10
2022-11-27T21:24:13.929Z,39.65
2022-11-27T21:29:10.804Z,36.25
2022-11-27T21:31:42.661Z,37.60
2022-11-27T21:34:14.484Z,34.28
2022-11-27T21:36:42.041Z,41.10
2022-11-27T21:39:12.381Z,30.38
2022-11-27T21:41:39.913Z,36.13
2022-11-27T21:44:07.578Z,38.20
2022-11-27T21:46:35.531Z,30.00
2022-11-27T21:49:05.876Z,35.08
2022-11-27T21:51:33.544Z,34.22
2022-11-27T21:54:09.518Z,35.42
2022-11-27T21:56:38.542Z,36.85
2022-11-27T21:59:07.916Z,37.30
2022-11-27T22:01:36.739Z,34.80
2022-11-27T22:04:04.557Z,41.53
2022-11-27T22:06:37.927Z,41.53
2022-11-27T22:09:10.496Z,33.08
2022-11-27T22:11:40.952Z,44.08
2022-11-27T22:14:08.910Z,35.20
2022-11-27T22:19:14.239Z,29.50
2022-11-27T22:21:42.425Z,40.13
2022-11-27T22:26:47.022Z,36.22
2022-11-27T22:29:14.623Z,26.73
2022-11-27T22:31:42.282Z,29.67
2022-11-27T22:34:09.757Z,43.83
2022-11-27T22:36:37.179Z,42.42
2022-11-27T22:39:07.202Z,47.03
2022-11-27T22:41:36.942Z,52.15
2022-11-27T22:44:09.601Z,50.75
2022-11-27T22:46:40.876Z,54.15
2022-11-27T22:49:11.157Z,58.75
2022-11-27T22:51:39.665Z,52.92
2022-11-27T22:54:09.909Z,51.50
2022-11-27T22:56:37.566Z,49.05
2022-11-27T22:59:31.184Z,59.38
2022-11-27T23:01:54.213Z,57.13
2022-11-27T23:06:49.273Z,54.80
2022-11-27T23:09:18.777Z,54.38
2022-11-27T23:11:46.518Z,61.90
2022-11-27T23:14:14.011Z,63.38
2022-11-27T23:16:41.566Z,66.13
2022-11-27T23:19:10.143Z,69.85
2022-11-27T23:21:38.857Z,67.20
2022-11-27T23:24:13.505Z,70.22
2022-11-27T23:26:41.847Z,64.50
2022-11-27T23:29:09.643Z,61.95
2022-11-27T23:31:38.114Z,58.47
2022-11-27T23:34:09.629Z,60.00
2022-11-27T23:36:37.341Z,48.75
2022-11-27T23:39:06.558Z,57.10
2022-11-27T23:41:34.436Z,56.65
2022-11-27T23:44:02.218Z,45.53
2022-11-27T23:46:30.494Z,59.33
2022-11-27T23:48:59.725Z,76.63
2022-11-27T23:51:30.079Z,54.03
2022-11-27T23:53:57.845Z,57.47
2022-11-27T23:56:28.106Z,54.20
2022-11-27T23:58:56.333Z,58.28
